createdAt,value
2023-02-16T05:07:15.156Z,101650.25
2023-02-16T05:10:17.603Z,101647.06
2023-02-16T05:13:38.514Z,101637.44
2023-02-16T05:16:41.450Z,101644.63
2023-02-16T05:19:45.919Z,101641.28
2023-02-16T05:22:48.322Z,101641.28
2023-02-16T05:25:50.424Z,101647.31
2023-02-16T05:28:52.976Z,101638.72
2023-02-16T05:31:55.141Z,101638.72
2023-02-16T05:34:57.610Z,101642.31
2023-02-16T05:37:59.723Z,101638.34
2023-02-16T05:41:02.374Z,101640.00
2023-02-16T05:44:06.759Z,101637.31
2023-02-16T05:47:09.207Z,101636.28
2023-02-16T05:50:11.722Z,101647.94
2023-02-16T05:53:14.228Z,101640.78
2023-02-16T05:56:17.688Z,101639.63
2023-02-16T05:59:20.604Z,101638.72
2023-02-16T06:02:22.700Z,101644.88
2023-02-16T06:05:25.844Z,101640.13
2023-02-16T06:08:29.229Z,101632.06
2023-02-16T06:11:38.011Z,101623.59
2023-02-16T06:14:40.155Z,101628.19
2023-02-16T06:17:44.656Z,101626.66
2023-02-16T06:20:46.989Z,101631.69
2023-02-16T06:23:49.616Z,101633.59
2023-02-16T06:26:51.706Z,101640.91
2023-02-16T06:29:54.389Z,101642.84
2023-02-16T06:32:56.498Z,101642.44
2023-02-16T06:35:58.915Z,101628.72
2023-02-16T06:39:01.056Z,101644.34
2023-02-16T06:42:03.976Z,101647.19
2023-02-16T06:45:06.489Z,101644.06
2023-02-16T06:48:08.872Z,101637.00
2023-02-16T06:51:11.028Z,101633.19
2023-02-16T06:54:14.070Z,101627.78
2023-02-16T06:57:16.303Z,101628.25
2023-02-16T07:00:19.167Z,101634.00
2023-02-16T07:03:21.390Z,101620.28
2023-02-16T07:06:26.746Z,101620.22
2023-02-16T07:09:28.942Z,101619.09
2023-02-16T07:12:31.447Z,101617.00
2023-02-16T07:15:33.568Z,101627.41
2023-02-16T07:18:36.464Z,101620.34
2023-02-16T07:21:38.652Z,101616.81
2023-02-16T07:24:41.083Z,101620.78
2023-02-16T07:27:43.186Z,101621.47
2023-02-16T07:30:45.534Z,101624.72
2023-02-16T07:33:47.810Z,101619.97
2023-02-16T07:36:50.273Z,101623.22
2023-02-16T07:39:53.187Z,101616.94
2023-02-16T07:43:00.103Z,101612.16
2023-02-16T07:46:02.373Z,101605.88
2023-02-16T07:49:05.273Z,101597.13
2023-02-16T07:52:07.384Z,101606.53
2023-02-16T07:55:11.347Z,101602.66
2023-02-16T07:58:27.220Z,101607.59
2023-02-16T08:01:30.990Z,101604.34
2023-02-16T08:04:34.568Z,101599.37
2023-02-16T08:07:36.715Z,101606.91
2023-02-16T08:10:39.437Z,101610.28
2023-02-16T08:13:41.635Z,101605.00
2023-02-16T08:16:47.066Z,101610.66
2023-02-16T08:19:50.141Z,101614.22
2023-02-16T08:22:54.637Z,101614.53
2023-02-16T08:25:58.882Z,101622.31
2023-02-16T08:29:01.990Z,101616.47
2023-02-16T08:32:07.710Z,101611.41
2023-02-16T08:35:10.195Z,101613.31
2023-02-16T08:38:12.579Z,101619.66
2023-02-16T08:41:15.962Z,101621.78
2023-02-16T08:44:19.718Z,101624.66
2023-02-16T08:47:24.334Z,101614.53
2023-02-16T08:50:26.461Z,101613.03
2023-02-16T08:53:33.054Z,101610.28
2023-02-16T08:56:35.380Z,101619.78
2023-02-16T08:59:37.775Z,101619.28
2023-02-16T09:02:39.941Z,101611.50
2023-02-16T09:05:42.592Z,101614.75
2023-02-16T09:08:46.429Z,101617.63
2023-02-16T09:11:49.199Z,101617.13
2023-02-16T09:14:53.843Z,101613.94
2023-02-16T09:17:57.007Z,101621.91
2023-02-16T09:21:04.685Z,101611.56
2023-02-16T09:24:07.949Z,101613.41
2023-02-16T09:27:11.554Z,101605.78
2023-02-16T09:30:14.287Z,101607.56
2023-02-16T09:33:16.467Z,101606.75
2023-02-16T09:36:18.938Z,101611.09
2023-02-16T09:39:21.534Z,101605.91
2023-02-16T09:42:50.900Z,101599.13
2023-02-16T09:45:54.917Z,101608.12
2023-02-16T09:48:58.870Z,101598.03
2023-02-16T09:52:26.345Z,101605.72
2023-02-16T09:55:37.384Z,101598.47
2023-02-16T09:58:46.778Z,101593.47
2023-02-16T10:02:05.665Z,101593.13
2023-02-16T10:05:14.376Z,101583.81
2023-02-16T10:08:39.926Z,101589.78
2023-02-16T10:11:49.847Z,101588.66
2023-02-16T10:14:56.888Z,101590.53
2023-02-16T10:18:08.144Z,101584.59
2023-02-16T10:21:19.462Z,101584.94
2023-02-16T10:24:22.102Z,101586.53
2023-02-16T10:27:32.654Z,101578.59
2023-02-16T10:30:35.084Z,101580.47
2023-02-16T10:33:54.882Z,101569.31
2023-02-16T10:37:31.103Z,101569.66
2023-02-16T10:40:56.227Z,101564.16
2023-02-16T10:44:08.278Z,101563.94
2023-02-16T10:47:34.369Z,101560.16
2023-02-16T10:50:42.025Z,101558.69
2023-02-16T10:53:52.264Z,101544.81
2023-02-16T10:57:00.658Z,101542.03
2023-02-16T11:00:08.148Z,101536.59
2023-02-16T11:03:12.285Z,101532.91
2023-02-16T11:06:17.355Z,101535.34
2023-02-16T11:09:27.849Z,101523.09
2023-02-16T11:12:39.624Z,101528.13
2023-02-16T11:15:42.298Z,101526.91
2023-02-16T11:18:49.656Z,101523.12
2023-02-16T11:21:59.229Z,101517.81
2023-02-16T11:25:22.798Z,101513.41
2023-02-16T11:28:32.762Z,101507.50
2023-02-16T11:31:38.145Z,101504.66
2023-02-16T11:34:47.970Z,101497.06
2023-02-16T11:37:50.562Z,101492.19
2023-02-16T11:40:53.677Z,101490.94
2023-02-16T11:43:56.644Z,101487.59
2023-02-16T11:47:02.677Z,101483.47
2023-02-16T11:50:19.936Z,101489.78
2023-02-16T11:53:33.140Z,101479.19
2023-02-16T11:56:36.671Z,101469.66
2023-02-16T11:59:40.239Z,101469.66
2023-02-16T12:02:58.183Z,101465.06
2023-02-16T12:06:16.946Z,101450.66
2023-02-16T12:09:46.795Z,101451.50
2023-02-16T12:13:12.844Z,101444.69
2023-02-16T12:16:51.914Z,101433.50
2023-02-16T12:20:14.428Z,101430.78
2023-02-16T12:23:32.088Z,101428.97
2023-02-16T12:26:54.500Z,101412.81
2023-02-16T12:30:11.997Z,101411.50
2023-02-16T12:33:20.945Z,101410.34
2023-02-16T12:36:32.862Z,101413.16
2023-02-16T12:40:13.158Z,101403.94
2023-02-16T12:43:43.515Z,101396.31
2023-02-16T12:46:49.759Z,101389.56
2023-02-16T12:50:11.522Z,101388.72
2023-02-16T12:53:28.020Z,101380.72
2023-02-16T13:01:23.678Z,101373.34
2023-02-16T13:04:54.573Z,101370.75
2023-02-16T13:08:07.629Z,101358.00
2023-02-16T13:11:23.495Z,101356.28
2023-02-16T13:14:32.212Z,101342.47
2023-02-16T13:17:50.946Z,101342.69
2023-02-16T13:21:09.314Z,101346.59
2023-02-16T13:24:26.819Z,101340.75
2023-02-16T13:28:01.278Z,101336.31
2023-02-16T13:31:43.827Z,101334.66
2023-02-16T13:35:17.730Z,101325.63
2023-02-16T13:38:28.992Z,101322.47
2023-02-16T13:41:43.112Z,101325.09
2023-02-16T13:44:50.610Z,101314.78
2023-02-16T13:47:55.923Z,101314.19
2023-02-16T13:51:02.147Z,101318.13
2023-02-16T13:54:07.751Z,101323.47
2023-02-16T13:57:34.240Z,101305.41
2023-02-16T14:00:42.206Z,101313.41
2023-02-16T14:03:44.623Z,101311.56
2023-02-16T14:06:46.855Z,101321.87
2023-02-16T14:09:49.894Z,101314.06
2023-02-16T14:12:52.283Z,101311.59
2023-02-16T14:15:57.545Z,101308.16
2023-02-16T14:19:03.511Z,101299.47
2023-02-16T14:22:12.264Z,101308.72
2023-02-16T14:25:23.350Z,101306.19
2023-02-16T14:28:31.911Z,101311.41
2023-02-16T14:31:44.101Z,101309.44
2023-02-16T14:34:52.280Z,101306.62
2023-02-16T14:38:24.894Z,101313.69
2023-02-16T14:41:33.528Z,101304.00
2023-02-16T14:44:52.568Z,101305.75
2023-02-16T14:48:18.167Z,101305.59
2023-02-16T14:51:44.817Z,101304.63
2023-02-16T14:55:17.776Z,101305.34
2023-02-16T14:58:29.092Z,101311.28
2023-02-16T15:01:43.056Z,101297.72
2023-02-16T15:04:46.142Z,101305.72
2023-02-16T15:07:53.346Z,101304.81
2023-02-16T15:10:58.354Z,101300.19
2023-02-16T15:14:08.562Z,101306.81
2023-02-16T15:17:28.276Z,101310.88
2023-02-16T15:20:34.257Z,101307.13
2023-02-16T15:23:36.626Z,101300.44
2023-02-16T15:26:39.283Z,101303.97
2023-02-16T15:29:41.499Z,101298.56
2023-02-16T15:32:52.207Z,101306.09
2023-02-16T15:36:03.095Z,101296.09
2023-02-16T15:39:45.247Z,101305.94
2023-02-16T15:42:56.752Z,101304.66
2023-02-16T15:46:01.527Z,101312.91
2023-02-16T15:49:27.482Z,101304.81
2023-02-16T15:52:35.947Z,101309.75
2023-02-16T15:55:46.713Z,101312.00
2023-02-16T15:58:49.975Z,101311.34
2023-02-16T16:02:18.555Z,101312.97
2023-02-16T16:05:29.788Z,101309.41
2023-02-16T16:08:32.623Z,101309.94
2023-02-16T16:11:36.337Z,101303.12
2023-02-16T16:14:59.530Z,101304.41
2023-02-16T16:18:02.667Z,101314.03
2023-02-16T16:21:26.830Z,101303.44
2023-02-16T16:24:38.974Z,101303.00
2023-02-16T16:27:48.158Z,101303.69
2023-02-16T16:31:16.280Z,101309.34
2023-02-16T16:34:39.321Z,101308.19
2023-02-16T16:37:41.751Z,101316.03
2023-02-16T16:40:51.771Z,101320.69
2023-02-16T16:43:56.849Z,101319.38
2023-02-16T16:47:33.506Z,101325.22
2023-02-16T16:50:39.781Z,101326.59
